createdAt,value
2022-12-26T00:00:22.820Z,96.81
2022-12-26T00:02:49.391Z,96.53
2022-12-26T00:05:15.839Z,96.75
2022-12-26T00:07:42.532Z,97.20
2022-12-26T00:10:09.089Z,96.47
2022-12-26T00:12:35.590Z,96.69
2022-12-26T00:15:02.217Z,96.90
2022-12-26T00:17:28.713Z,96.93
2022-12-26T00:19:55.163Z,96.83
2022-12-26T00:22:21.670Z,96.20
2022-12-26T00:24:48.117Z,96.91
2022-12-26T00:27:14.464Z,96.58
2022-12-26T00:29:40.881Z,95.42
2022-12-26T00:32:07.331Z,96.31
2022-12-26T00:34:33.700Z,95.43
2022-12-26T00:37:00.297Z,96.34
2022-12-26T00:39:27.040Z,95.44
2022-12-26T00:41:53.401Z,95.72
2022-12-26T00:44:19.868Z,95.54
2022-12-26T00:46:46.295Z,96.18
2022-12-26T00:49:12.705Z,94.94
2022-12-26T00:51:39.201Z,95.91
2022-12-26T00:54:05.588Z,95.73
2022-12-26T00:56:32.086Z,96.72
2022-12-26T00:58:58.457Z,96.95
2022-12-26T01:01:25.130Z,97.20
2022-12-26T01:03:52.187Z,98.16
2022-12-26T01:06:18.668Z,96.92
2022-12-26T01:08:45.123Z,97.40
2022-12-26T01:11:14.708Z,98.48
2022-12-26T01:13:42.069Z,97.65
2022-12-26T01:16:08.665Z,98.57
2022-12-26T01:18:35.825Z,98.30
2022-12-26T01:21:06.039Z,97.88
2022-12-26T01:23:32.618Z,98.74
2022-12-26T01:26:18.342Z,98.20
2022-12-26T01:28:45.553Z,98.07
2022-12-26T01:31:11.978Z,97.41
2022-12-26T01:33:38.455Z,97.82
2022-12-26T01:36:05.252Z,98.03
2022-12-26T01:38:31.666Z,98.01
2022-12-26T01:41:16.416Z,98.28
2022-12-26T01:44:01.231Z,98.92
2022-12-26T01:46:31.765Z,98.74
2022-12-26T01:49:02.270Z,97.75
2022-12-26T01:51:33.573Z,97.90
2022-12-26T01:54:40.391Z,98.47
2022-12-26T01:56:51.341Z,98.81
2022-12-26T01:59:22.486Z,97.92
2022-12-26T02:01:51.839Z,98.39
2022-12-26T02:04:44.527Z,98.21
2022-12-26T02:07:11.216Z,98.71
2022-12-26T02:09:38.980Z,99.29
2022-12-26T02:12:36.676Z,99.23
2022-12-26T02:15:12.381Z,99.59
2022-12-26T02:17:40.146Z,99.31
2022-12-26T02:20:17.238Z,100.00
2022-12-26T02:23:24.186Z,100.00
2022-12-26T02:26:14.063Z,100.00
2022-12-26T02:29:02.532Z,100.00
2022-12-26T02:31:43.792Z,100.00
2022-12-26T02:34:49.356Z,100.00
2022-12-26T02:37:31.801Z,100.00
2022-12-26T02:40:17.450Z,100.00
2022-12-26T02:42:59.242Z,100.00
2022-12-26T02:46:02.522Z,100.00
2022-12-26T02:48:57.672Z,100.00
2022-12-26T02:52:07.923Z,100.00
2022-12-26T02:55:10.608Z,100.00
2022-12-26T02:58:09.549Z,100.00
2022-12-26T03:00:59.707Z,100.00
2022-12-26T03:03:48.980Z,100.00
2022-12-26T03:06:38.747Z,100.00
2022-12-26T03:09:29.308Z,100.00
2022-12-26T03:12:37.555Z,100.00
2022-12-26T03:15:12.174Z,100.00
2022-12-26T03:17:42.940Z,100.00
2022-12-26T03:20:20.060Z,100.00
2022-12-26T03:23:11.072Z,100.00
2022-12-26T03:26:20.914Z,100.00
2022-12-26T03:28:48.963Z,100.00
2022-12-26T03:31:15.929Z,100.00
2022-12-26T03:34:05.575Z,100.00
2022-12-26T03:36:31.859Z,100.00
2022-12-26T03:39:45.630Z,100.00
2022-12-26T03:43:17.202Z,100.00
2022-12-26T03:46:31.196Z,100.00
2022-12-26T03:49:25.035Z,100.00
2022-12-26T03:52:18.391Z,100.00
2022-12-26T03:55:14.981Z,100.00
2022-12-26T03:58:26.877Z,100.00
2022-12-26T04:01:14.485Z,100.00
2022-12-26T04:04:02.279Z,100.00
2022-12-26T04:06:58.146Z,100.00
2022-12-26T04:09:51.270Z,100.00
2022-12-26T04:12:42.609Z,100.00
2022-12-26T04:15:41.654Z,100.00
2022-12-26T04:18:35.674Z,100.00
2022-12-26T04:21:34.602Z,100.00
2022-12-26T04:24:31.639Z,100.00
2022-12-26T04:27:21.161Z,100.00
2022-12-26T04:30:06.665Z,100.00
2022-12-26T04:32:58.608Z,100.00
2022-12-26T04:35:51.106Z,100.00
2022-12-26T04:38:43.053Z,100.00
2022-12-26T04:41:30.498Z,100.00
2022-12-26T04:44:03.680Z,100.00
2022-12-26T04:46:32.168Z,100.00
2022-12-26T04:49:18.711Z,100.00
2022-12-26T04:51:45.142Z,100.00
2022-12-26T04:54:11.489Z,100.00
2022-12-26T04:56:37.873Z,100.00
2022-12-26T04:59:04.277Z,100.00
2022-12-26T05:01:49.389Z,100.00
2022-12-26T05:04:36.493Z,100.00
2022-12-26T05:07:24.072Z,100.00
2022-12-26T05:09:53.441Z,100.00
2022-12-26T05:12:21.025Z,100.00
2022-12-26T05:14:47.486Z,100.00
2022-12-26T05:17:32.958Z,100.00
2022-12-26T05:20:18.180Z,100.00
2022-12-26T05:23:04.082Z,100.00
2022-12-26T05:25:53.248Z,100.00
2022-12-26T05:28:38.831Z,100.00
2022-12-26T05:31:06.083Z,100.00
2022-12-26T05:33:51.359Z,100.00
2022-12-26T05:36:20.223Z,100.00
2022-12-26T05:38:48.109Z,100.00
2022-12-26T05:41:15.243Z,100.00
2022-12-26T05:43:41.802Z,100.00
2022-12-26T05:46:08.221Z,100.00
2022-12-26T05:48:34.772Z,100.00
2022-12-26T05:51:02.646Z,100.00
2022-12-26T05:53:30.210Z,100.00
2022-12-26T05:56:10.721Z,100.00
2022-12-26T05:58:37.887Z,100.00
2022-12-26T06:01:12.519Z,100.00
2022-12-26T06:03:40.022Z,100.00
2022-12-26T06:06:07.067Z,100.00
2022-12-26T06:08:33.590Z,100.00
2022-12-26T06:11:03.536Z,100.00
2022-12-26T06:13:29.927Z,100.00
2022-12-26T06:15:56.383Z,100.00
2022-12-26T06:18:22.856Z,100.00
2022-12-26T06:20:49.259Z,100.00
2022-12-26T06:23:15.782Z,100.00
2022-12-26T06:25:42.305Z,100.00
2022-12-26T06:28:08.665Z,100.00
2022-12-26T06:30:35.084Z,100.00
2022-12-26T06:33:01.458Z,100.00
2022-12-26T06:35:27.848Z,100.00
2022-12-26T06:37:54.263Z,100.00
2022-12-26T06:40:20.804Z,100.00
2022-12-26T06:42:47.159Z,100.00
2022-12-26T06:45:13.562Z,100.00
2022-12-26T06:47:39.979Z,100.00
2022-12-26T06:50:06.751Z,100.00
2022-12-26T06:52:33.130Z,100.00
2022-12-26T06:54:59.744Z,100.00
2022-12-26T06:57:26.277Z,100.00
2022-12-26T06:59:53.397Z,100.00
2022-12-26T07:02:19.861Z,100.00
2022-12-26T07:04:46.333Z,100.00
2022-12-26T07:07:12.717Z,100.00
2022-12-26T07:09:39.143Z,100.00
2022-12-26T07:12:05.974Z,100.00
2022-12-26T07:14:32.447Z,100.00
2022-12-26T07:16:58.948Z,100.00
2022-12-26T07:19:25.367Z,100.00
2022-12-26T07:21:51.843Z,100.00
2022-12-26T07:24:21.065Z,100.00
2022-12-26T07:26:48.502Z,100.00
2022-12-26T07:29:15.673Z,100.00
2022-12-26T07:31:42.662Z,100.00
2022-12-26T07:34:09.153Z,100.00
2022-12-26T07:36:35.863Z,100.00
2022-12-26T07:39:02.698Z,100.00
2022-12-26T07:41:48.190Z,100.00
2022-12-26T07:44:14.727Z,100.00
2022-12-26T07:46:41.161Z,100.00
2022-12-26T07:49:08.083Z,100.00
2022-12-26T07:51:34.516Z,100.00
2022-12-26T07:54:05.502Z,100.00
2022-12-26T07:56:35.580Z,100.00
2022-12-26T07:59:02.018Z,100.00
2022-12-26T08:01:28.731Z,100.00
2022-12-26T08:03:55.200Z,100.00
2022-12-26T08:06:22.607Z,100.00
2022-12-26T08:08:51.554Z,100.00
2022-12-26T08:11:22.321Z,100.00
2022-12-26T08:13:48.970Z,100.00
2022-12-26T08:16:15.836Z,100.00
2022-12-26T08:18:42.712Z,100.00
2022-12-26T08:21:10.308Z,100.00
2022-12-26T08:23:36.806Z,100.00
2022-12-26T08:26:11.653Z,100.00
2022-12-26T08:28:41.532Z,100.00
2022-12-26T08:31:09.780Z,100.00
2022-12-26T08:33:36.610Z,100.00
2022-12-26T08:36:05.479Z,100.00
2022-12-26T08:38:34.121Z,100.00
2022-12-26T08:41:00.912Z,100.00
2022-12-26T08:43:52.749Z,100.00
2022-12-26T08:46:13.889Z,100.00
2022-12-26T08:48:41.228Z,100.00
2022-12-26T08:51:12.030Z,100.00
2022-12-26T08:53:38.427Z,100.00
2022-12-26T08:56:06.680Z,100.00
2022-12-26T08:58:33.858Z,100.00
2022-12-26T09:01:13.251Z,100.00
2022-12-26T09:03:40.401Z,100.00
2022-12-26T09:06:08.058Z,100.00
2022-12-26T09:08:35.791Z,100.00
2022-12-26T09:11:10.383Z,100.00
2022-12-26T09:13:38.376Z,100.00
2022-12-26T09:16:12.710Z,100.00
2022-12-26T09:18:39.593Z,100.00
2022-12-26T09:21:08.553Z,100.00
2022-12-26T09:23:36.166Z,100.00
2022-12-26T09:26:29.280Z,100.00
2022-12-26T09:28:56.216Z,100.00
2022-12-26T09:31:27.712Z,100.00
2022-12-26T09:33:54.330Z,100.00
2022-12-26T09:36:24.868Z,100.00
2022-12-26T09:38:52.398Z,100.00
2022-12-26T09:41:36.371Z,100.00
2022-12-26T09:44:15.029Z,100.00
2022-12-26T09:46:55.939Z,100.00
2022-12-26T09:49:28.404Z,100.00
2022-12-26T09:52:00.504Z,100.00
2022-12-26T09:54:46.780Z,100.00
2022-12-26T09:57:19.859Z,100.00
2022-12-26T09:59:52.207Z,100.00
2022-12-26T10:02:22.229Z,100.00
2022-12-26T10:04:49.179Z,100.00
2022-12-26T10:07:37.007Z,100.00
2022-12-26T10:10:09.500Z,100.00
2022-12-26T10:12:40.258Z,100.00
2022-12-26T10:15:18.429Z,100.00
2022-12-26T10:18:24.408Z,100.00
2022-12-26T10:21:05.660Z,100.00
2022-12-26T10:23:39.927Z,98.49
2022-12-26T10:26:15.270Z,98.81
2022-12-26T10:28:51.541Z,97.45
2022-12-26T10:31:37.245Z,99.73
2022-12-26T10:34:03.628Z,97.94
2022-12-26T10:36:42.637Z,98.77
2022-12-26T10:39:19.239Z,98.81
2022-12-26T10:41:50.191Z,98.08
2022-12-26T10:44:16.904Z,97.87
2022-12-26T10:47:11.397Z,97.41
2022-12-26T10:49:38.268Z,97.41
2022-12-26T10:52:04.891Z,97.33
2022-12-26T10:54:31.357Z,96.76
2022-12-26T10:57:00.023Z,97.50
2022-12-26T10:59:41.637Z,98.45
2022-12-26T11:02:15.328Z,97.64
2022-12-26T11:07:51.085Z,95.76
2022-12-26T11:10:27.485Z,95.96
2022-12-26T11:13:01.029Z,96.21
2022-12-26T11:15:39.359Z,94.91
2022-12-26T11:18:36.307Z,95.21
2022-12-26T11:21:19.869Z,94.53
2022-12-26T11:23:49.469Z,94.32
2022-12-26T11:26:24.953Z,95.20
2022-12-26T11:29:08.660Z,93.97
2022-12-26T11:31:41.284Z,93.79
2022-12-26T11:34:19.788Z,94.13
2022-12-26T11:36:49.536Z,95.49
2022-12-26T11:39:25.921Z,94.24
2022-12-26T11:41:53.027Z,93.89
2022-12-26T11:44:29.034Z,92.97
2022-12-26T11:47:05.917Z,93.35
2022-12-26T11:49:45.854Z,92.25
2022-12-26T11:52:30.935Z,92.62
2022-12-26T11:54:57.473Z,92.73
2022-12-26T11:57:33.457Z,92.19
2022-12-26T12:00:18.892Z,92.93
2022-12-26T12:02:46.043Z,92.13
2022-12-26T12:05:16.090Z,91.83
2022-12-26T12:08:03.364Z,91.27
2022-12-26T12:10:54.883Z,92.47
2022-12-26T12:13:50.496Z,92.50
2022-12-26T12:16:36.682Z,93.02
2022-12-26T12:19:35.611Z,93.23
2022-12-26T12:22:34.314Z,93.62
2022-12-26T12:25:19.795Z,96.06
2022-12-26T12:27:48.929Z,97.39
2022-12-26T12:30:18.379Z,99.02
2022-12-26T12:33:04.999Z,99.80
2022-12-26T12:35:46.275Z,99.73
2022-12-26T12:38:36.274Z,100.00
2022-12-26T12:41:38.031Z,100.00
2022-12-26T12:44:08.619Z,100.00
2022-12-26T12:46:55.185Z,100.00
2022-12-26T12:49:34.912Z,99.34
2022-12-26T12:52:29.037Z,99.13
2022-12-26T12:55:17.611Z,97.54
2022-12-26T12:58:03.854Z,95.90
2022-12-26T13:00:39.551Z,95.97
2022-12-26T13:03:27.053Z,95.82
2022-12-26T13:06:02.453Z,97.17
2022-12-26T13:08:40.178Z,99.86
2022-12-26T13:11:26.493Z,100.00
2022-12-26T13:14:06.591Z,100.00
2022-12-26T13:16:43.592Z,100.00
2022-12-26T13:19:22.444Z,100.00
2022-12-26T13:21:50.389Z,100.00
2022-12-26T13:24:36.286Z,100.00
2022-12-26T13:27:13.540Z,100.00
2022-12-26T13:29:45.665Z,100.00
2022-12-26T13:32:30.628Z,100.00
2022-12-26T13:34:59.455Z,100.00
2022-12-26T13:37:37.935Z,98.02
2022-12-26T13:40:17.750Z,92.20
2022-12-26T13:43:05.794Z,87.84
2022-12-26T13:45:38.277Z,85.30
2022-12-26T13:48:17.146Z,85.05
2022-12-26T13:50:55.213Z,83.30
2022-12-26T13:53:39.274Z,80.43
2022-12-26T13:56:18.798Z,79.47
2022-12-26T13:59:00.425Z,79.93
2022-12-26T14:01:46.525Z,80.48
2022-12-26T14:04:49.894Z,81.79
2022-12-26T14:07:50.168Z,82.65
2022-12-26T14:10:54.562Z,81.71
2022-12-26T14:14:02.234Z,82.12
2022-12-26T14:16:50.297Z,82.17
2022-12-26T14:19:43.543Z,83.69
2022-12-26T14:22:26.527Z,84.60
2022-12-26T14:25:20.151Z,84.71
2022-12-26T14:27:55.687Z,84.54
2022-12-26T14:30:30.519Z,83.91
2022-12-26T14:33:15.109Z,85.65
2022-12-26T14:35:47.564Z,86.32
2022-12-26T14:38:44.080Z,85.28
2022-12-26T14:41:33.935Z,85.22
2022-12-26T14:44:36.615Z,85.12
2022-12-26T14:47:05.140Z,84.26
2022-12-26T14:49:35.538Z,84.28
2022-12-26T14:52:24.552Z,84.34
2022-12-26T14:54:55.430Z,82.90
2022-12-26T14:57:43.923Z,82.71
2022-12-26T15:00:30.011Z,83.56
2022-12-26T15:02:59.364Z,83.81
2022-12-26T15:05:32.550Z,84.00
2022-12-26T15:08:26.821Z,83.88
2022-12-26T15:10:56.007Z,84.50
2022-12-26T15:13:36.508Z,84.30
2022-12-26T15:16:35.153Z,84.35
2022-12-26T15:19:49.088Z,83.99
2022-12-26T15:22:44.711Z,84.33
2022-12-26T15:25:37.164Z,83.19
2022-12-26T15:28:31.905Z,80.94
2022-12-26T15:31:17.162Z,82.81
2022-12-26T15:33:56.167Z,83.55
2022-12-26T15:36:28.621Z,83.30
2022-12-26T15:39:16.761Z,82.07
2022-12-26T15:42:06.446Z,82.07
2022-12-26T15:44:39.891Z,82.02
2022-12-26T15:47:33.210Z,81.47
2022-12-26T15:50:24.812Z,82.05
2022-12-26T15:53:16.034Z,81.40
2022-12-26T15:55:57.663Z,81.24
2022-12-26T15:59:07.269Z,81.56
2022-12-26T16:01:42.971Z,81.11
2022-12-26T16:04:25.356Z,81.27
2022-12-26T16:07:27.298Z,81.08
2022-12-26T16:09:56.189Z,80.78
2022-12-26T16:12:26.899Z,80.82
2022-12-26T16:15:25.525Z,81.25
2022-12-26T16:17:51.998Z,80.64
2022-12-26T16:20:50.557Z,80.25
2022-12-26T16:23:19.782Z,79.18
2022-12-26T16:25:48.192Z,78.13
2022-12-26T16:28:15.303Z,76.97
2022-12-26T16:30:42.377Z,77.40
2022-12-26T16:33:08.846Z,76.36
2022-12-26T16:35:39.288Z,76.71
2022-12-26T16:38:11.581Z,75.55
2022-12-26T16:40:50.068Z,77.15
2022-12-26T16:43:19.498Z,75.40
2022-12-26T16:45:48.675Z,76.48
2022-12-26T16:48:19.555Z,75.54
2022-12-26T16:50:53.127Z,76.90
2022-12-26T16:53:40.390Z,75.76
2022-12-26T16:56:27.975Z,75.98
2022-12-26T16:59:04.568Z,75.52
2022-12-26T17:01:32.762Z,74.96
2022-12-26T17:04:03.776Z,74.25
2022-12-26T17:06:35.483Z,73.40
2022-12-26T17:09:10.769Z,74.50
2022-12-26T17:11:45.019Z,74.37
2022-12-26T17:14:25.284Z,73.88
2022-12-26T17:17:04.274Z,73.28
2022-12-26T17:19:33.486Z,73.88
2022-12-26T17:22:14.959Z,73.92
2022-12-26T17:24:41.979Z,75.18
2022-12-26T17:27:17.561Z,74.48
2022-12-26T17:29:58.250Z,74.59
2022-12-26T17:32:30.911Z,74.62
2022-12-26T17:35:23.405Z,74.38
2022-12-26T17:37:54.637Z,74.00
2022-12-26T17:40:27.290Z,74.85
2022-12-26T17:43:03.918Z,75.03
2022-12-26T17:45:30.332Z,74.64
2022-12-26T17:47:57.632Z,75.07
2022-12-26T17:50:30.063Z,76.04
2022-12-26T17:53:13.138Z,75.37
2022-12-26T17:55:39.897Z,74.45
2022-12-26T17:58:09.346Z,73.79
2022-12-26T18:00:35.713Z,73.07
2022-12-26T18:03:02.203Z,73.27
2022-12-26T18:05:28.730Z,73.83
2022-12-26T18:07:55.464Z,72.82
2022-12-26T18:10:29.124Z,72.86
2022-12-26T18:12:55.869Z,73.35
2022-12-26T18:15:23.223Z,72.79
2022-12-26T18:17:50.720Z,73.09
2022-12-26T18:20:22.854Z,72.09
2022-12-26T18:22:49.354Z,73.12
2022-12-26T18:25:17.658Z,73.15
2022-12-26T18:27:44.704Z,72.40
2022-12-26T18:30:15.404Z,72.38
2022-12-26T18:32:42.000Z,72.79
2022-12-26T18:35:09.540Z,72.69
2022-12-26T18:37:36.346Z,73.75
2022-12-26T18:40:02.988Z,73.23
2022-12-26T18:42:29.325Z,72.97
2022-12-26T18:44:55.916Z,73.45
2022-12-26T18:47:22.772Z,72.62
2022-12-26T18:49:49.454Z,72.77
2022-12-26T18:52:17.558Z,73.35
2022-12-26T18:54:44.594Z,73.19
2022-12-26T18:57:17.280Z,73.89
2022-12-26T18:59:43.709Z,74.01
2022-12-26T19:02:16.303Z,74.47
2022-12-26T19:04:42.706Z,75.00
2022-12-26T19:07:11.117Z,74.60
2022-12-26T19:09:37.517Z,75.02
2022-12-26T19:12:04.047Z,74.76
2022-12-26T19:14:31.382Z,74.55
2022-12-26T19:16:57.806Z,74.72
2022-12-26T19:19:26.552Z,74.53
2022-12-26T19:21:53.105Z,75.11
2022-12-26T19:24:19.551Z,75.54
2022-12-26T19:26:46.050Z,75.01
2022-12-26T19:29:12.492Z,74.77
2022-12-26T19:31:39.107Z,74.86
2022-12-26T19:34:05.550Z,75.33
2022-12-26T19:36:31.985Z,75.63
2022-12-26T19:38:58.853Z,75.53
2022-12-26T19:41:25.374Z,74.79
2022-12-26T19:43:56.418Z,75.54
2022-12-26T19:46:23.871Z,75.00
2022-12-26T19:48:50.899Z,75.32
2022-12-26T19:51:18.838Z,75.52
2022-12-26T19:53:46.179Z,75.58
2022-12-26T19:56:18.522Z,75.37
2022-12-26T19:58:50.534Z,74.57
2022-12-26T20:01:27.829Z,75.73
2022-12-26T20:03:56.975Z,75.47
2022-12-26T20:06:25.983Z,75.95
2022-12-26T20:08:57.010Z,75.01
2022-12-26T20:11:27.385Z,75.85
2022-12-26T20:13:53.970Z,75.69
2022-12-26T20:17:03.013Z,74.96
2022-12-26T20:19:09.116Z,75.20
2022-12-26T20:21:36.252Z,76.25
2022-12-26T20:24:02.827Z,76.23
2022-12-26T20:26:29.701Z,75.88
2022-12-26T20:29:01.134Z,76.02
2022-12-26T20:31:30.057Z,76.71
2022-12-26T20:33:57.641Z,75.98
2022-12-26T20:36:26.945Z,75.40
2022-12-26T20:38:56.571Z,76.27
2022-12-26T20:41:25.695Z,75.73
2022-12-26T20:43:52.428Z,75.68
2022-12-26T20:46:21.485Z,75.68
2022-12-26T20:48:51.193Z,75.59
2022-12-26T20:51:21.192Z,75.34
2022-12-26T20:53:47.587Z,75.51
2022-12-26T20:56:15.542Z,76.52
2022-12-26T20:58:41.975Z,77.03
2022-12-26T21:01:12.248Z,75.71
2022-12-26T21:03:39.263Z,76.25
2022-12-26T21:06:12.998Z,77.13
2022-12-26T21:08:41.513Z,76.67
2022-12-26T21:11:11.209Z,76.73
2022-12-26T21:13:38.762Z,76.67
2022-12-26T21:16:09.842Z,76.90
2022-12-26T21:18:37.290Z,77.39
2022-12-26T21:21:07.625Z,76.78
2022-12-26T21:23:34.409Z,76.68
2022-12-26T21:26:00.870Z,75.92
2022-12-26T21:28:27.427Z,76.82
2022-12-26T21:30:54.265Z,76.15
2022-12-26T21:33:20.704Z,76.90
2022-12-26T21:35:50.724Z,76.36
2022-12-26T21:38:17.500Z,76.09
2022-12-26T21:40:44.701Z,76.60
2022-12-26T21:43:11.163Z,77.65
2022-12-26T21:45:41.337Z,76.49
2022-12-26T21:48:08.282Z,76.41
2022-12-26T21:50:35.059Z,76.38
2022-12-26T21:53:01.738Z,76.90
2022-12-26T21:55:30.850Z,77.46
2022-12-26T21:58:00.658Z,77.34
2022-12-26T22:00:27.110Z,77.44
2022-12-26T22:03:12.416Z,78.10
2022-12-26T22:05:41.040Z,77.50
2022-12-26T22:08:09.580Z,78.47
2022-12-26T22:10:55.940Z,77.70
2022-12-26T22:13:24.354Z,78.45
2022-12-26T22:16:05.083Z,77.54
2022-12-26T22:18:33.030Z,78.42
2022-12-26T22:21:07.220Z,77.89
2022-12-26T22:23:34.167Z,78.42
2022-12-26T22:26:00.867Z,78.18
2022-12-26T22:28:29.439Z,77.83
2022-12-26T22:30:56.500Z,78.19
2022-12-26T22:33:23.117Z,78.06
2022-12-26T22:35:49.703Z,78.37
2022-12-26T22:38:16.134Z,78.81
2022-12-26T22:40:42.559Z,78.43
2022-12-26T22:43:09.162Z,78.88
2022-12-26T22:45:39.611Z,79.09
2022-12-26T22:48:06.144Z,78.83
2022-12-26T22:50:32.580Z,78.78
2022-12-26T22:52:58.953Z,77.20
2022-12-26T22:55:25.300Z,78.43
2022-12-26T22:57:53.348Z,77.90
2022-12-26T23:00:20.873Z,78.45
2022-12-26T23:02:47.392Z,79.00
2022-12-26T23:05:14.383Z,77.38
2022-12-26T23:07:41.050Z,78.21
2022-12-26T23:10:08.652Z,78.19
2022-12-26T23:12:44.371Z,78.57
2022-12-26T23:15:16.769Z,78.13
2022-12-26T23:18:18.911Z,77.95
2022-12-26T23:21:04.720Z,78.24
2022-12-26T23:23:31.477Z,78.48
2022-12-26T23:26:02.222Z,78.73
2022-12-26T23:28:47.387Z,77.99
2022-12-26T23:31:14.415Z,77.32
2022-12-26T23:33:41.066Z,77.29
2022-12-26T23:36:07.897Z,78.39
2022-12-26T23:38:34.366Z,77.75
2022-12-26T23:41:00.812Z,77.71
2022-12-26T23:43:27.300Z,78.28
2022-12-26T23:45:53.709Z,79.35
2022-12-26T23:48:20.340Z,78.99
2022-12-26T23:50:46.936Z,78.73
2022-12-26T23:53:13.412Z,79.15
2022-12-26T23:55:41.488Z,79.03
2022-12-26T23:58:08.605Z,78.04
